createdAt,value
2022-12-09T00:06:27.752Z,2.82
2022-12-09T00:21:27.040Z,2.60
2022-12-09T00:36:21.825Z,2.48
2022-12-09T00:51:11.361Z,2.40
2022-12-09T01:06:01.303Z,2.33
2022-12-09T01:20:56.065Z,2.18
2022-12-09T01:35:48.256Z,2.13
2022-12-09T01:50:37.858Z,2.00
2022-12-09T02:05:28.501Z,1.99
2022-12-09T02:20:20.048Z,1.72
2022-12-09T02:35:15.541Z,1.70
2022-12-09T02:50:09.190Z,1.61
2022-12-09T03:05:12.715Z,1.51
2022-12-09T03:20:08.356Z,1.58
2022-12-09T03:34:57.934Z,1.60
2022-12-09T03:49:48.713Z,1.58
2022-12-09T04:04:40.089Z,1.65
2022-12-09T04:19:29.616Z,1.67
2022-12-09T04:34:20.736Z,1.61
2022-12-09T04:49:10.124Z,1.56
2022-12-09T05:04:02.251Z,1.25
2022-12-09T05:19:03.416Z,0.96
2022-12-09T05:33:53.279Z,0.93
2022-12-09T05:48:44.147Z,0.84
2022-12-09T06:03:33.153Z,0.75
2022-12-09T06:18:24.430Z,0.85
2022-12-09T06:33:29.451Z,0.80
2022-12-09T06:48:04.144Z,0.79
2022-12-09T07:02:54.778Z,0.87
2022-12-09T07:17:43.916Z,0.95
2022-12-09T07:32:33.860Z,0.98
2022-12-09T07:47:24.018Z,0.95
2022-12-09T08:02:13.022Z,0.97
2022-12-09T08:17:02.714Z,0.98
2022-12-09T08:31:53.050Z,1.19
2022-12-09T08:46:44.400Z,1.37
2022-12-09T09:01:33.962Z,1.57
2022-12-09T09:16:25.756Z,1.77
2022-12-09T09:31:15.306Z,2.00
2022-12-09T09:46:06.331Z,2.14
2022-12-09T10:01:07.500Z,2.42
2022-12-09T10:16:27.261Z,2.48
2022-12-09T10:31:22.782Z,2.55
2022-12-09T10:46:18.735Z,2.81
2022-12-09T11:01:12.599Z,2.95
2022-12-09T11:16:05.296Z,3.12
2022-12-09T11:45:54.836Z,3.40
2022-12-09T12:00:57.015Z,3.53
2022-12-09T12:15:54.122Z,3.60
2022-12-09T12:31:22.260Z,3.82
2022-12-09T12:46:37.840Z,3.95
2022-12-09T13:01:35.182Z,4.01
2022-12-09T13:16:30.396Z,3.97
2022-12-09T13:31:26.210Z,4.04
2022-12-09T13:46:21.878Z,4.10
2022-12-09T14:01:13.503Z,4.15
2022-12-09T14:16:27.647Z,4.13
2022-12-09T14:31:41.805Z,4.07
2022-12-09T15:01:54.859Z,4.06
2022-12-09T15:16:50.702Z,4.17
2022-12-09T15:31:39.149Z,4.17
2022-12-09T15:46:30.059Z,4.17
2022-12-09T16:01:22.446Z,4.11
2022-12-09T16:16:24.862Z,4.13
2022-12-09T16:31:18.051Z,4.11
2022-12-09T16:46:14.540Z,4.16
2022-12-09T17:01:07.624Z,4.09
2022-12-09T17:15:58.925Z,4.12
2022-12-09T17:30:49.789Z,4.09
2022-12-09T17:45:42.402Z,4.13
2022-12-09T18:00:34.151Z,4.11
2022-12-09T18:15:26.307Z,4.11
2022-12-09T18:30:15.969Z,4.08
2022-12-09T18:45:06.919Z,4.09
2022-12-09T18:59:57.520Z,4.10
2022-12-09T19:14:47.476Z,4.13
2022-12-09T19:29:37.781Z,4.08
2022-12-09T19:59:17.895Z,4.10
2022-12-09T20:14:07.904Z,4.09
2022-12-09T20:28:57.711Z,4.09
2022-12-09T20:58:37.651Z,3.92
2022-12-09T21:28:18.249Z,4.02
2022-12-09T21:43:08.690Z,4.00
2022-12-09T21:57:59.439Z,3.92
2022-12-09T22:12:49.161Z,3.89
2022-12-09T22:27:39.372Z,3.85
2022-12-09T22:42:29.360Z,3.87
2022-12-09T22:57:19.502Z,3.72
2022-12-09T23:12:08.862Z,3.65
2022-12-09T23:26:58.997Z,3.61
2022-12-09T23:41:48.318Z,3.46
2022-12-09T23:56:38.285Z,3.49
